Time;durP1;ratioP1;P1;durP2;ratioP2;P2;SDS_P1;SDS_P2;PMS_P1;PMS_P2;Temp;Humidity;BMP_temperature;BMP_pressure;BME280_temperature;BME280_humidity;BME280_pressure;Samples;Min_cycle;Max_cycle;Signal;HPM_P1;HPM_P2
2024/01/14 00:00:11;;;;;;;19.17;6.40;;;;;;;-1.62;88.23;99673.66;336894;28;17857;-77
2024/01/14 00:00:23;;;;;;;21.13;7.28;;;;;;;-1.65;88.14;99673.63;338398;28;4786;-77
2024/01/14 00:00:37;;;;;;;21.42;7.55;;;;;;;-1.65;88.15;99672.72;334484;28;18340;-77
2024/01/14 00:00:49;;;;;;;19.02;6.75;;;;;;;-1.66;88.34;99676.13;334768;28;18005;-77
2024/01/14 00:01:02;;;;;;;15.98;5.88;;;;;;;-1.63;88.62;99666.84;337902;28;4837;-77
2024/01/14 00:01:18;;;;;;;19.75;6.28;;;;;;;-1.61;88.22;99669.41;337655;28;16661;-77
2024/01/14 00:01:30;;;;;;;20.52;6.60;;;;;;;-1.67;88.26;99670.19;334277;28;16127;-76
2024/01/14 00:01:42;;;;;;;20.10;6.15;;;;;;;-1.65;88.26;99667.63;337172;28;4701;-77
2024/01/14 00:01:57;;;;;;;20.85;6.25;;;;;;;-1.67;88.53;99670.19;335181;28;5312;-76
2024/01/14 00:02:09;;;;;;;20.20;6.82;;;;;;;-1.71;88.46;99672.63;337063;28;16881;-77
2024/01/14 00:02:22;;;;;;;19.70;6.80;;;;;;;-1.69;88.78;99666.75;337198;28;5245;-76
2024/01/14 00:02:35;;;;;;;18.67;7.00;;;;;;;-1.65;88.45;99671.06;337384;28;4555;-77
2024/01/14 00:02:47;;;;;;;19.70;7.30;;;;;;;-1.66;88.46;99666.78;335245;28;18250;-76
2024/01/14 00:02:59;;;;;;;16.48;6.82;;;;;;;-1.68;88.24;99673.53;332983;28;4723;-76
2024/01/14 00:03:17;;;;;;;14.93;6.72;;;;;;;-1.65;88.55;99668.53;334231;28;16947;-76
2024/01/14 00:03:29;;;;;;;17.80;6.53;;;;;;;-1.66;88.86;99671.88;334952;28;17763;-77
2024/01/14 00:03:41;;;;;;;18.80;6.57;;;;;;;-1.61;88.93;99672.84;337764;28;17669;-77
2024/01/14 00:03:53;;;;;;;20.05;7.20;;;;;;;-1.56;88.89;99661.84;338771;28;5509;-76
2024/01/14 00:04:06;;;;;;;19.83;7.70;;;;;;;-1.62;88.33;99663.47;336374;28;16462;-76
2024/01/14 00:04:18;;;;;;;17.67;6.65;;;;;;;-1.54;88.03;99665.28;338289;28;4884;-76
2024/01/14 00:04:30;;;;;;;18.55;6.57;;;;;;;-1.58;88.46;99660.97;334961;28;16321;-76
2024/01/14 00:04:42;;;;;;;18.60;6.35;;;;;;;-1.47;87.94;99672.19;337239;28;4602;-77
2024/01/14 00:04:54;;;;;;;15.98;5.75;;;;;;;-1.46;88.50;99663.72;335469;28;5448;-76
2024/01/14 00:05:07;;;;;;;18.75;6.28;;;;;;;-1.47;88.10;99661.97;336465;28;4612;-76
2024/01/14 00:05:19;;;;;;;20.85;6.80;;;;;;;-1.45;87.98;99670.50;334915;28;4653;-76
2024/01/14 00:05:31;;;;;;;21.17;7.18;;;;;;;-1.47;88.38;99661.97;337037;28;5237;-76
2024/01/14 00:05:43;;;;;;;17.70;6.10;;;;;;;-1.50;88.15;99661.94;337613;28;4549;-77
2024/01/14 00:05:56;;;;;;;17.98;5.80;;;;;;;-1.47;88.30;99667.09;328812;28;13361;-76
2024/01/14 00:06:10;;;;;;;16.83;5.70;;;;;;;-1.47;88.09;99673.06;337773;28;5249;-76
2024/01/14 00:06:23;;;;;;;15.68;6.68;;;;;;;-1.56;88.28;99667.81;334841;28;17985;-76
2024/01/14 00:06:35;;;;;;;21.25;7.85;;;;;;;-1.57;87.73;99666.09;333695;28;14115;-77
2024/01/14 00:06:49;;;;;;;24.63;7.93;;;;;;;-1.61;87.81;99670.28;335937;28;4688;-76
2024/01/14 00:07:02;;;;;;;21.48;7.75;;;;;;;-1.56;88.40;99669.50;332243;28;17748;-76
2024/01/14 00:07:14;;;;;;;16.98;6.93;;;;;;;-1.56;88.35;99666.94;332888;28;5264;-77
2024/01/14 00:07:26;;;;;;;17.20;6.75;;;;;;;-1.51;87.65;99670.41;334692;28;17582;-76
2024/01/14 00:07:41;;;;;;;20.00;7.00;;;;;;;-1.62;88.02;99670.25;337373;28;5709;-76
2024/01/14 00:07:53;;;;;;;20.02;6.75;;;;;;;-1.61;87.96;99670.28;331094;28;17774;-76
2024/01/14 00:08:05;;;;;;;17.17;5.65;;;;;;;-1.59;87.99;99672.84;332805;28;13542;-76
2024/01/14 00:08:17;;;;;;;16.45;4.75;;;;;;;-1.62;88.40;99663.47;335717;28;4780;-76
2024/01/14 00:08:29;;;;;;;15.80;5.43;;;;;;;-1.56;88.31;99667.81;335795;28;4683;-77
2024/01/14 00:08:41;;;;;;;18.60;6.07;;;;;;;-1.53;87.85;99672.09;333506;28;13953;-76
2024/01/14 00:08:53;;;;;;;20.00;6.35;;;;;;;-1.53;88.11;99667.00;335478;28;5074;-76
2024/01/14 00:09:05;;;;;;;17.77;6.40;;;;;;;-1.67;87.69;99677.81;336061;28;13821;-77
2024/01/14 00:09:18;;;;;;;16.75;5.93;;;;;;;-1.75;88.17;99670.88;337122;28;4887;-77
2024/01/14 00:09:30;;;;;;;18.73;6.95;;;;;;;-1.73;88.45;99675.19;336255;28;4526;-76
2024/01/14 00:09:42;;;;;;;19.67;7.50;;;;;;;-1.77;88.45;99673.41;333376;28;18253;-76
2024/01/14 00:09:55;;;;;;;20.65;8.05;;;;;;;-1.82;88.98;99669.91;336988;28;4962;-77
2024/01/14 00:10:07;;;;;;;22.73;7.72;;;;;;;-1.87;89.03;99663.84;332959;28;17893;-76
2024/01/14 00:10:19;;;;;;;20.52;6.78;;;;;;;-1.87;89.55;99668.94;334236;28;19143;-76
2024/01/14 00:10:31;;;;;;;20.98;6.82;;;;;;;-1.83;89.56;99663.97;329620;28;4837;-76
2024/01/14 00:10:43;;;;;;;20.92;7.18;;;;;;;-1.79;89.47;99669.09;337479;28;4822;-76
2024/01/14 00:10:55;;;;;;;20.20;7.35;;;;;;;-1.76;89.43;99670.00;339022;28;5325;-77
2024/01/14 00:11:07;;;;;;;20.63;7.00;;;;;;;-1.71;89.17;99672.63;335086;28;17954;-76
2024/01/14 00:11:20;;;;;;;19.75;6.28;;;;;;;-1.72;89.26;99669.22;337281;28;4604;-76
2024/01/14 00:11:32;;;;;;;17.75;6.03;;;;;;;-1.66;89.27;99664.25;337108;28;13625;-76
2024/01/14 00:11:44;;;;;;;15.88;5.75;;;;;;;-1.65;88.77;99668.53;330704;28;18395;-77
2024/01/14 00:11:56;;;;;;;17.67;5.93;;;;;;;-1.67;89.11;99660.00;337182;28;4676;-76
2024/01/14 00:12:08;;;;;;;18.25;6.68;;;;;;;-1.65;88.57;99668.53;333932;28;17711;-77
2024/01/14 00:12:20;;;;;;;19.10;6.40;;;;;;;-1.70;88.51;99665.03;337090;28;4610;-76
2024/01/14 00:12:32;;;;;;;17.80;6.30;;;;;;;-1.55;88.94;99663.56;337840;28;5179;-77
2024/01/14 00:12:44;;;;;;;17.83;5.93;;;;;;;-1.63;88.57;99661.75;334888;28;18160;-76
2024/01/14 00:12:56;;;;;;;19.38;6.13;;;;;;;-1.58;88.59;99655.88;337834;28;5283;-77
2024/01/14 00:13:08;;;;;;;20.30;6.22;;;;;;;-1.61;88.63;99672.84;331430;28;19224;-76
2024/01/14 00:13:20;;;;;;;18.80;6.93;;;;;;;-1.66;88.41;99666.78;337486;28;5044;-77
2024/01/14 00:13:32;;;;;;;19.02;6.97;;;;;;;-1.65;88.07;99660.00;336358;28;4589;-76
2024/01/14 00:13:44;;;;;;;18.95;6.40;;;;;;;-1.65;88.39;99658.31;338685;28;5885;-77
2024/01/14 00:13:56;;;;;;;20.13;6.37;;;;;;;-1.50;87.95;99662.81;338359;28;6960;-77
2024/01/14 00:14:09;;;;;;;20.15;6.65;;;;;;;-1.51;87.94;99656.00;336288;28;18317;-77
2024/01/14 00:14:21;;;;;;;17.38;6.32;;;;;;;-1.57;87.78;99666.09;338308;28;4534;-76
2024/01/14 00:14:33;;;;;;;16.70;6.57;;;;;;;-1.62;87.86;99668.56;338021;28;5163;-76
2024/01/14 00:14:45;;;;;;;17.00;6.22;;;;;;;-1.63;88.17;99665.97;332054;28;18144;-76
2024/01/14 00:14:57;;;;;;;16.08;6.15;;;;;;;-1.61;88.36;99670.28;337229;28;5743;-76
2024/01/14 00:15:10;;;;;;;17.83;6.38;;;;;;;-1.68;88.58;99667.59;334782;28;4586;-76
2024/01/14 00:15:22;;;;;;;15.63;6.03;;;;;;;-1.72;88.51;99665.84;336249;28;4779;-76
2024/01/14 00:15:34;;;;;;;16.92;6.28;;;;;;;-1.73;88.41;99666.66;334748;28;16409;-77
2024/01/14 00:15:46;;;;;;;20.02;6.70;;;;;;;-1.72;88.48;99664.13;337327;28;4896;-76
2024/01/14 00:15:58;;;;;;;20.70;6.63;;;;;;;-1.71;88.60;99665.88;337005;28;5228;-77
2024/01/14 00:16:10;;;;;;;21.08;6.78;;;;;;;-1.75;88.65;99666.66;334370;28;17814;-77
2024/01/14 00:16:22;;;;;;;19.08;6.38;;;;;;;-1.73;88.46;99670.09;337625;28;4678;-77
2024/01/14 00:16:34;;;;;;;19.40;5.75;;;;;;;-1.66;88.88;99664.25;335206;28;18344;-77
2024/01/14 00:16:46;;;;;;;22.45;6.72;;;;;;;-1.73;88.79;99664.09;337518;28;5242;-77
2024/01/14 00:16:58;;;;;;;21.65;7.05;;;;;;;-1.77;88.73;99668.31;337362;28;4746;-76
2024/01/14 00:17:10;;;;;;;19.38;7.07;;;;;;;-1.76;88.55;99667.47;335480;28;18003;-76
2024/01/14 00:17:23;;;;;;;17.80;7.05;;;;;;;-1.78;88.79;99665.72;338219;28;5734;-77
2024/01/14 00:17:35;;;;;;;17.27;7.20;;;;;;;-1.83;88.93;99663.13;337742;28;10959;-76
2024/01/14 00:17:47;;;;;;;18.58;7.38;;;;;;;-1.78;89.20;99668.28;336045;28;17914;-76
2024/01/14 00:17:59;;;;;;;21.33;7.03;;;;;;;-1.72;88.89;99664.13;338367;28;5381;-76
2024/01/14 00:18:11;;;;;;;20.67;6.82;;;;;;;-1.66;88.98;99660.84;336098;28;18070;-77
2024/01/14 00:18:23;;;;;;;20.70;7.28;;;;;;;-1.66;88.58;99660.84;338843;28;4691;-76
2024/01/14 00:18:36;;;;;;;19.38;6.93;;;;;;;-1.62;88.39;99660.06;336084;28;18221;-76
2024/01/14 00:18:48;;;;;;;18.55;6.30;;;;;;;-1.62;88.66;99663.47;338701;28;5928;-76
2024/01/14 00:19:07;;;;;;;18.73;6.20;;;;;;;-1.64;88.46;99665.13;331136;28;17909;-76
2024/01/14 00:19:19;;;;;;;17.63;6.63;;;;;;;-1.64;88.08;99654.94;337184;28;17886;-77
2024/01/14 00:19:32;;;;;;;22.13;8.05;;;;;;;-1.64;88.33;99665.13;336714;28;18145;-77
2024/01/14 00:19:44;;;;;;;23.00;8.70;;;;;;;-1.64;88.70;99664.28;337769;28;4674;-76
2024/01/14 00:19:56;;;;;;;21.80;7.90;;;;;;;-1.64;88.71;99660.03;332229;28;18364;-76
2024/01/14 00:20:08;;;;;;;20.83;6.70;;;;;;;-1.64;88.88;99662.56;336416;28;4757;-77
2024/01/14 00:20:21;;;;;;;19.20;6.22;;;;;;;-1.59;88.51;99664.34;333058;28;18176;-76
2024/01/14 00:20:33;;;;;;;18.83;5.63;;;;;;;-1.51;88.17;99655.13;336130;28;4519;-76
2024/01/14 00:20:45;;;;;;;18.17;5.57;;;;;;;-1.50;88.15;99656.84;333420;28;4774;-77
2024/01/14 00:20:57;;;;;;;18.77;5.63;;;;;;;-1.55;87.95;99661.88;332279;28;5399;-77
2024/01/14 00:21:09;;;;;;;21.60;7.05;;;;;;;-1.59;88.21;99656.69;334639;28;12749;-76
2024/01/14 00:21:21;;;;;;;21.67;7.30;;;;;;;-1.59;88.38;99656.69;333114;29;17652;-76
2024/01/14 00:21:33;;;;;;;19.88;6.65;;;;;;;-1.64;88.44;99654.94;334924;28;5733;-77
2024/01/14 00:21:45;;;;;;;16.30;6.25;;;;;;;-1.59;88.46;99657.53;333518;28;10178;-76
2024/01/14 00:21:57;;;;;;;16.85;6.43;;;;;;;-1.58;88.21;99664.38;333076;28;5601;-76
2024/01/14 00:22:09;;;;;;;16.50;6.45;;;;;;;-1.58;87.96;99654.19;337678;28;4530;-76
2024/01/14 00:22:21;;;;;;;16.13;6.18;;;;;;;-1.57;88.04;99657.56;334792;28;19415;-77
2024/01/14 00:22:33;;;;;;;16.23;6.07;;;;;;;-1.53;87.81;99651.69;337967;28;4801;-76
2024/01/14 00:22:47;;;;;;;17.40;6.45;;;;;;;-1.50;87.57;99657.69;334960;28;12738;-76
2024/01/14 00:22:59;;;;;;;20.75;6.78;;;;;;;-1.57;88.09;99660.13;337189;28;5044;-76
2024/01/14 00:23:11;;;;;;;19.58;6.50;;;;;;;-1.52;88.22;99648.31;330065;28;16914;-76
2024/01/14 00:23:23;;;;;;;17.30;6.30;;;;;;;-1.53;87.72;99652.56;337257;28;4532;-76
2024/01/14 00:23:35;;;;;;;16.55;6.03;;;;;;;-1.61;87.47;99654.13;334176;28;11480;-76
2024/01/14 00:23:47;;;;;;;16.73;5.63;;;;;;;-1.58;87.48;99655.88;336834;28;5343;-77
2024/01/14 00:23:59;;;;;;;16.60;5.55;;;;;;;-1.66;87.71;99655.75;337875;28;4726;-77
2024/01/14 00:24:11;;;;;;;16.40;6.03;;;;;;;-1.67;88.18;99649.78;334180;28;17616;-76
2024/01/14 00:24:23;;;;;;;18.25;6.57;;;;;;;-1.72;87.77;99645.44;337135;28;4568;-77
2024/01/14 00:24:36;;;;;;;21.85;7.50;;;;;;;-1.65;87.82;99649.78;329541;28;13384;-76
2024/01/14 00:24:49;;;;;;;22.23;7.32;;;;;;;-1.68;88.02;99652.31;338330;28;5284;-76
2024/01/14 00:25:01;;;;;;;20.00;6.57;;;;;;;-1.70;88.02;99649.72;333447;28;17935;-77
2024/01/14 00:25:14;;;;;;;19.27;6.88;;;;;;;-1.73;88.28;99639.50;337441;28;4601;-77
2024/01/14 00:25:25;;;;;;;16.63;6.47;;;;;;;-1.72;87.85;99651.41;333616;28;8134;-76
2024/01/14 00:25:38;;;;;;;14.82;6.05;;;;;;;-1.63;88.23;99651.56;336932;28;5493;-76
2024/01/14 00:25:50;;;;;;;14.23;6.03;;;;;;;-1.64;87.74;99648.97;337162;28;4680;-77
2024/01/14 00:26:02;;;;;;;17.52;6.35;;;;;;;-1.63;87.86;99641.38;333907;28;18290;-76
2024/01/14 00:26:14;;;;;;;19.00;6.15;;;;;;;-1.69;87.92;99643.81;332934;28;5443;-76
2024/01/14 00:26:28;;;;;;;18.40;6.03;;;;;;;-1.72;88.18;99646.28;336543;28;4647;-76
2024/01/14 00:26:40;;;;;;;17.58;6.60;;;;;;;-1.64;88.44;99636.22;334497;28;18202;-77
2024/01/14 00:26:52;;;;;;;15.77;6.55;;;;;;;-1.70;88.14;99636.97;334806;28;13578;-76
2024/01/14 00:27:04;;;;;;;14.93;6.00;;;;;;;-1.76;88.03;99639.44;337549;28;4929;-76
2024/01/14 00:27:17;;;;;;;15.07;5.55;;;;;;;-1.72;88.40;99643.75;336104;28;11956;-76
2024/01/14 00:27:30;;;;;;;15.80;5.78;;;;;;;-1.71;87.97;99649.69;334574;28;4682;-77
2024/01/14 00:27:42;;;;;;;17.17;5.97;;;;;;;-1.67;88.27;99638.72;335638;28;16274;-76
2024/01/14 00:27:54;;;;;;;15.80;5.82;;;;;;;-1.65;88.51;99634.50;338464;28;4578;-77
2024/01/14 00:28:06;;;;;;;13.73;5.57;;;;;;;-1.66;88.20;99641.31;338385;28;5290;-77
2024/01/14 00:28:18;;;;;;;13.60;5.70;;;;;;;-1.67;88.37;99638.72;335907;28;17194;-76
2024/01/14 00:28:30;;;;;;;15.35;6.43;;;;;;;-1.70;88.40;99639.53;337283;28;4878;-76
2024/01/14 00:28:42;;;;;;;18.23;7.15;;;;;;;-1.72;88.70;99638.66;335218;28;14364;-76
2024/01/14 00:28:57;;;;;;;18.30;6.68;;;;;;;-1.67;88.56;99644.69;337371;28;4580;-77
2024/01/14 00:29:09;;;;;;;18.48;6.80;;;;;;;-1.70;88.43;99638.69;330410;28;19623;-76
2024/01/14 00:29:21;;;;;;;19.05;6.40;;;;;;;-1.70;88.18;99638.69;338810;28;5309;-76
2024/01/14 00:29:36;;;;;;;23.45;6.18;;;;;;;-1.66;88.18;99631.09;336048;28;18034;-77
2024/01/14 00:29:48;;;;;;;25.35;6.43;;;;;;;-1.68;87.94;99640.41;335306;28;17957;-76
2024/01/14 00:30:00;;;;;;;21.23;6.70;;;;;;;-1.61;88.45;99634.59;337299;28;5914;-77
2024/01/14 00:30:13;;;;;;;17.35;6.18;;;;;;;-1.52;87.83;99633.03;334929;28;14441;-76
2024/01/14 00:30:25;;;;;;;17.58;6.03;;;;;;;-1.50;87.73;99632.22;332679;28;5653;-76
2024/01/14 00:30:37;;;;;;;17.58;5.88;;;;;;;-1.49;87.60;99633.06;336407;28;4593;-77
2024/01/14 00:30:49;;;;;;;17.35;5.95;;;;;;;-1.57;88.13;99629.53;332504;28;18144;-77
2024/01/14 00:31:01;;;;;;;16.70;6.32;;;;;;;-1.66;88.08;99636.19;335904;28;5864;-76
2024/01/14 00:31:13;;;;;;;18.35;6.78;;;;;;;-1.65;88.03;99632.84;333150;28;18250;-76
2024/01/14 00:31:25;;;;;;;19.42;6.68;;;;;;;-1.68;87.81;99637.88;335510;28;4991;-77
2024/01/14 00:31:37;;;;;;;20.52;6.82;;;;;;;-1.62;88.01;99632.88;332276;28;15639;-76
2024/01/14 00:31:50;;;;;;;20.08;7.20;;;;;;;-1.62;87.76;99632.88;335647;28;4624;-76
2024/01/14 00:32:02;;;;;;;18.95;6.93;;;;;;;-1.72;88.16;99640.34;335784;28;5326;-77
2024/01/14 00:32:14;;;;;;;16.60;6.40;;;;;;;-1.79;88.40;99636.84;334305;28;18018;-76
2024/01/14 00:32:26;;;;;;;17.98;5.85;;;;;;;-1.80;88.81;99632.56;337303;28;5492;-77
2024/01/14 00:32:38;;;;;;;18.48;5.82;;;;;;;-1.76;88.71;99628.41;330221;28;5508;-76
2024/01/14 00:32:50;;;;;;;16.23;5.78;;;;;;;-1.79;88.61;99634.31;336265;28;4651;-76
2024/01/14 00:33:03;;;;;;;18.70;6.55;;;;;;;-1.81;88.73;99630.88;336732;28;11481;-77
2024/01/14 00:33:15;;;;;;;20.42;6.70;;;;;;;-1.82;88.43;99631.69;335649;28;18399;-76
2024/01/14 00:33:28;;;;;;;21.48;6.70;;;;;;;-1.88;89.21;99629.88;334204;28;5177;-76
2024/01/14 00:33:40;;;;;;;18.92;6.20;;;;;;;-1.80;89.15;99637.66;334696;28;18304;-76
2024/01/14 00:33:53;;;;;;;20.30;6.63;;;;;;;-1.82;88.74;99634.25;337297;28;4531;-77
2024/01/14 00:34:05;;;;;;;20.92;6.70;;;;;;;-1.82;89.19;99634.25;336339;28;19458;-76
2024/01/14 00:34:17;;;;;;;18.30;6.13;;;;;;;-1.80;88.71;99632.56;337435;28;4961;-76
2024/01/14 00:34:29;;;;;;;12.55;5.63;;;;;;;-1.90;88.84;99633.25;335719;28;5402;-77
2024/01/14 00:34:41;;;;;;;16.45;5.90;;;;;;;-1.82;89.00;99634.25;333752;28;4852;-76
2024/01/14 00:34:53;;;;;;;19.98;6.82;;;;;;;-1.88;89.13;99634.13;336083;28;13493;-76
2024/01/14 00:35:06;;;;;;;20.25;7.10;;;;;;;-1.80;89.57;99632.56;338116;28;5362;-76
2024/01/14 00:35:18;;;;;;;20.83;7.10;;;;;;;-1.79;89.12;99634.31;337520;28;4877;-77
2024/01/14 00:35:30;;;;;;;21.13;6.90;;;;;;;-1.81;88.93;99631.72;334281;28;18818;-76
2024/01/14 00:35:42;;;;;;;21.65;7.10;;;;;;;-1.75;88.99;99630.09;337738;28;4740;-76
2024/01/14 00:35:56;;;;;;;19.58;6.85;;;;;;;-1.70;88.79;99628.50;333881;28;17681;-76
2024/01/14 00:36:08;;;;;;;14.95;5.93;;;;;;;-1.67;88.56;99623.44;337387;28;4863;-77
2024/01/14 00:36:20;;;;;;;18.23;6.45;;;;;;;-1.62;88.54;99635.41;329738;28;18481;-76
2024/01/14 00:36:40;;;;;;;19.38;6.60;;;;;;;-1.61;89.01;99624.41;336640;28;5466;-77
2024/01/14 00:36:52;;;;;;;21.55;6.28;;;;;;;-1.55;88.10;99622.78;333677;28;16311;-77
2024/01/14 00:37:04;;;;;;;22.60;6.88;;;;;;;-1.49;88.33;99622.88;334725;28;6700;-77
2024/01/14 00:37:16;;;;;;;17.80;6.55;;;;;;;-1.45;87.71;99622.06;337053;28;5261;-77
2024/01/14 00:37:29;;;;;;;15.20;5.93;;;;;;;-1.44;87.77;99622.09;337435;28;5658;-77
2024/01/14 00:37:41;;;;;;;13.18;5.65;;;;;;;-1.44;87.65;99618.72;331838;28;17815;-76
2024/01/14 00:37:54;;;;;;;13.32;5.75;;;;;;;-1.45;87.73;99622.97;338674;28;4616;-76
2024/01/14 00:38:06;;;;;;;15.73;6.40;;;;;;;-1.46;87.30;99618.69;335111;28;18197;-77
2024/01/14 00:38:18;;;;;;;14.63;6.32;;;;;;;-1.47;87.46;99629.72;337909;28;5605;-76
2024/01/14 00:38:30;;;;;;;14.30;6.38;;;;;;;-1.51;87.17;99627.09;334806;28;18331;-76
2024/01/14 00:38:42;;;;;;;15.80;7.07;;;;;;;-1.47;87.43;99618.66;337479;28;4555;-76
2024/01/14 00:38:54;;;;;;;16.48;6.65;;;;;;;-1.58;87.06;99628.69;336737;28;13004;-77
2024/01/14 00:39:10;;;;;;;18.13;5.72;;;;;;;-1.64;87.74;99626.88;334493;28;18069;-76
2024/01/14 00:39:22;;;;;;;17.55;6.10;;;;;;;-1.66;87.50;99631.09;333968;28;17964;-76
2024/01/14 00:39:38;;;;;;;16.00;6.55;;;;;;;-1.75;88.53;99633.53;337582;28;5076;-76
2024/01/14 00:39:50;;;;;;;17.02;6.88;;;;;;;-1.76;88.54;99629.25;335010;28;17667;-76
2024/01/14 00:40:06;;;;;;;15.68;6.35;;;;;;;-1.77;88.26;99634.31;333716;28;17772;-77
2024/01/14 00:40:18;;;;;;;15.50;5.88;;;;;;;-1.79;88.76;99624.13;333834;28;17951;-76
2024/01/14 00:40:30;;;;;;;17.02;5.50;;;;;;;-1.75;88.60;99619.91;336618;28;4549;-77
2024/01/14 00:40:42;;;;;;;19.15;5.35;;;;;;;-1.72;88.31;99625.06;335482;28;17703;-76
2024/01/14 00:40:54;;;;;;;18.50;5.70;;;;;;;-1.78;88.54;99635.16;337631;28;4857;-76
2024/01/14 00:41:07;;;;;;;16.88;5.88;;;;;;;-1.75;88.26;99628.44;334850;28;18174;-76
2024/01/14 00:41:20;;;;;;;15.50;6.00;;;;;;;-1.73;88.58;99619.13;337261;28;4551;-77
2024/01/14 00:41:33;;;;;;;15.38;6.20;;;;;;;-1.72;88.56;99636.09;334545;28;18143;-76
2024/01/14 00:41:45;;;;;;;15.35;5.80;;;;;;;-1.81;88.32;99625.78;337286;28;4624;-77
2024/01/14 00:41:57;;;;;;;14.15;5.53;;;;;;;-1.84;88.09;99625.72;334268;28;19564;-76
2024/01/14 00:42:09;;;;;;;14.67;6.07;;;;;;;-1.90;88.68;99625.59;332851;28;5509;-77
2024/01/14 00:42:21;;;;;;;16.92;6.20;;;;;;;-1.86;88.56;99622.28;336203;28;5473;-76
2024/01/14 00:42:33;;;;;;;17.00;6.22;;;;;;;-1.88;88.49;99626.50;334070;28;13812;-76
2024/01/14 00:42:45;;;;;;;15.93;6.00;;;;;;;-1.93;88.58;99630.63;337608;28;4692;-77
2024/01/14 00:42:57;;;;;;;16.60;6.18;;;;;;;-1.89;88.77;99629.84;334410;28;19066;-77
2024/01/14 00:43:09;;;;;;;17.42;6.32;;;;;;;-1.88;88.62;99626.50;338260;28;4627;-76
2024/01/14 00:43:21;;;;;;;18.02;6.75;;;;;;;-1.91;88.90;99628.97;334021;28;4551;-76
2024/01/14 00:43:33;;;;;;;17.90;6.53;;;;;;;-1.97;89.01;99632.28;331477;28;4620;-76
2024/01/14 00:43:46;;;;;;;16.95;6.53;;;;;;;-1.96;88.84;99622.97;336355;28;4536;-76
2024/01/14 00:43:58;;;;;;;18.02;5.82;;;;;;;-1.93;89.28;99623.00;333701;28;17981;-76
2024/01/14 00:44:10;;;;;;;17.45;6.15;;;;;;;-1.95;89.19;99624.66;337050;28;8718;-77
2024/01/14 00:44:22;;;;;;;13.85;6.35;;;;;;;-1.99;89.25;99623.78;333620;28;16072;-76
2024/01/14 00:44:41;;;;;;;19.25;6.35;;;;;;;-2.06;89.18;99630.41;331952;28;17549;-76
2024/01/14 00:44:53;;;;;;;26.17;7.10;;;;;;;-2.13;89.70;99617.53;332063;28;18016;-77
2024/01/14 00:45:06;;;;;;;24.25;7.82;;;;;;;-2.13;89.52;99628.63;329229;28;6775;-77
2024/01/14 00:45:18;;;;;;;20.23;7.50;;;;;;;-2.15;89.87;99625.19;331341;28;18082;-76
2024/01/14 00:45:30;;;;;;;19.08;6.97;;;;;;;-2.22;90.22;99616.56;334603;28;4548;-76
2024/01/14 00:45:42;;;;;;;17.80;5.82;;;;;;;-2.14;90.39;99631.97;333282;28;11979;-76
2024/01/14 00:45:55;;;;;;;16.88;6.03;;;;;;;-2.07;90.20;99623.63;336549;28;4654;-76
2024/01/14 00:46:07;;;;;;;14.77;6.10;;;;;;;-1.98;90.09;99627.16;336115;28;4823;-77
2024/01/14 00:46:19;;;;;;;16.20;6.35;;;;;;;-1.91;89.75;99628.97;332925;28;16952;-76
2024/01/14 00:46:31;;;;;;;19.63;6.80;;;;;;;-1.97;89.69;99623.78;331890;28;5284;-76
2024/01/14 00:46:43;;;;;;;19.08;6.43;;;;;;;-1.88;89.60;99629.03;334716;28;17890;-76
2024/01/14 00:46:55;;;;;;;17.67;6.32;;;;;;;-1.91;89.52;99623.88;336331;28;5540;-76
2024/01/14 00:47:07;;;;;;;14.55;5.28;;;;;;;-1.89;89.20;99619.66;337553;28;4648;-77
2024/01/14 00:47:19;;;;;;;13.48;5.18;;;;;;;-1.86;89.21;99629.91;333733;28;17936;-76
2024/01/14 00:47:31;;;;;;;14.07;4.97;;;;;;;-1.89;89.09;99624.75;337468;28;4554;-76
2024/01/14 00:47:43;;;;;;;16.80;5.40;;;;;;;-1.93;89.06;99625.53;336963;28;17901;-76
2024/01/14 00:47:55;;;;;;;19.50;6.30;;;;;;;-1.97;88.90;99629.75;333701;28;17952;-77
2024/01/14 00:48:07;;;;;;;17.92;6.18;;;;;;;-2.01;89.43;99627.97;330314;28;4615;-76
2024/01/14 00:48:20;;;;;;;15.63;6.32;;;;;;;-1.95;88.81;99619.56;337025;28;5011;-76
2024/01/14 00:48:33;;;;;;;16.58;5.72;;;;;;;-1.89;88.96;99622.22;334808;28;11773;-76
2024/01/14 00:48:45;;;;;;;17.17;6.30;;;;;;;-1.88;88.96;99623.94;337310;28;5529;-76
2024/01/14 00:48:58;;;;;;;17.50;6.72;;;;;;;-1.89;88.58;99617.13;337095;28;4681;-76
2024/01/14 00:49:10;;;;;;;15.93;6.60;;;;;;;-1.93;89.08;99623.88;333880;28;18074;-76
2024/01/14 00:49:22;;;;;;;16.50;6.05;;;;;;;-1.95;89.15;99620.44;333116;28;4578;-76
2024/01/14 00:49:34;;;;;;;20.23;6.40;;;;;;;-1.96;89.09;99615.31;336546;28;18115;-76
2024/01/14 00:49:47;;;;;;;16.02;5.50;;;;;;;-2.02;88.97;99614.34;338654;28;5481;-76
2024/01/14 00:49:59;;;;;;;15.13;5.35;;;;;;;-2.16;89.33;99617.50;335206;28;17898;-77
2024/01/14 00:50:12;;;;;;;16.13;6.00;;;;;;;-2.17;89.44;99614.09;338974;28;5591;-76
2024/01/14 00:50:24;;;;;;;18.73;7.10;;;;;;;-2.13;89.60;99617.53;336041;28;13482;-76
2024/01/14 00:50:36;;;;;;;18.80;7.35;;;;;;;-2.09;89.96;99614.25;338507;28;4710;-76
2024/01/14 00:50:51;;;;;;;19.17;6.90;;;;;;;-2.09;89.75;99612.56;332553;28;4581;-76
2024/01/14 00:51:05;;;;;;;22.20;6.00;;;;;;;-2.10;89.45;99610.81;335232;28;17257;-76
2024/01/14 00:51:20;;;;;;;21.58;6.45;;;;;;;-2.05;89.60;99606.69;336200;28;17088;-76
2024/01/14 00:51:32;;;;;;;16.98;6.43;;;;;;;-2.05;89.74;99604.13;336413;28;5142;-77
2024/01/14 00:51:44;;;;;;;16.20;6.38;;;;;;;-2.00;89.62;99609.31;333578;28;18953;-76
2024/01/14 00:51:56;;;;;;;15.60;6.37;;;;;;;-2.02;89.51;99606.72;336264;28;4693;-77
2024/01/14 00:52:08;;;;;;;18.63;6.45;;;;;;;-2.08;89.74;99605.75;337228;28;5425;-77
2024/01/14 00:52:20;;;;;;;17.15;6.10;;;;;;;-2.03;89.74;99614.34;334618;28;18819;-76
2024/01/14 00:52:32;;;;;;;17.05;5.95;;;;;;;-2.03;89.54;99612.66;337156;28;6287;-77
2024/01/14 00:52:44;;;;;;;17.02;6.38;;;;;;;-1.99;89.33;99605.06;335410;28;5242;-77
2024/01/14 00:52:56;;;;;;;14.60;5.80;;;;;;;-1.97;89.59;99603.41;337037;28;4727;-76
2024/01/14 00:53:08;;;;;;;13.85;5.53;;;;;;;-1.94;89.54;99608.56;336222;28;9626;-76
2024/01/14 00:53:20;;;;;;;15.90;5.97;;;;;;;-1.93;89.53;99606.03;336024;28;17328;-77
2024/01/14 00:53:32;;;;;;;15.77;5.85;;;;;;;-1.97;89.60;99603.41;336379;28;4731;-77
2024/01/14 00:53:44;;;;;;;16.00;6.10;;;;;;;-1.93;89.29;99605.16;330337;28;4828;-76
2024/01/14 00:53:56;;;;;;;15.50;6.05;;;;;;;-1.93;89.74;99606.03;335781;28;7253;-76
2024/01/14 00:54:08;;;;;;;17.17;6.15;;;;;;;-1.89;89.44;99604.38;336769;28;5200;-76
2024/01/14 00:54:20;;;;;;;18.40;6.05;;;;;;;-1.89;89.36;99605.25;333880;28;18300;-76
2024/01/14 00:54:32;;;;;;;21.67;6.55;;;;;;;-1.92;88.97;99611.97;337100;28;4721;-76
2024/01/14 00:54:44;;;;;;;18.58;5.63;;;;;;;-1.94;88.94;99611.94;334652;28;13419;-76
2024/01/14 00:54:56;;;;;;;17.00;5.03;;;;;;;-1.87;89.15;99610.34;330909;28;4990;-76
2024/01/14 00:55:09;;;;;;;17.08;5.43;;;;;;;-1.86;89.02;99607.00;335549;28;4580;-76
2024/01/14 00:55:21;;;;;;;16.85;5.50;;;;;;;-1.86;88.58;99596.81;331963;28;18719;-76
2024/01/14 00:55:33;;;;;;;14.75;5.40;;;;;;;-1.86;88.79;99596.81;336384;28;5876;-76
2024/01/14 00:55:45;;;;;;;14.48;5.45;;;;;;;-1.90;88.62;99607.78;333154;28;17738;-76
2024/01/14 00:55:57;;;;;;;12.63;5.10;;;;;;;-1.90;88.52;99606.06;335965;28;4753;-77
2024/01/14 00:56:09;;;;;;;14.63;5.53;;;;;;;-1.96;88.64;99605.13;336921;28;5113;-77
2024/01/14 00:56:21;;;;;;;15.43;5.63;;;;;;;-1.86;88.44;99590.00;334937;28;18437;-77
2024/01/14 00:56:33;;;;;;;14.45;5.90;;;;;;;-1.84;88.63;99597.69;333188;28;4671;-76
2024/01/14 00:56:46;;;;;;;17.08;6.55;;;;;;;-1.91;88.38;99593.31;337203;28;4673;-77
2024/01/14 00:56:57;;;;;;;18.17;6.57;;;;;;;-1.94;88.42;99599.22;334951;28;18257;-76
2024/01/14 00:57:10;;;;;;;22.40;6.38;;;;;;;-1.92;89.01;99601.78;336631;28;4600;-76
2024/01/14 00:57:22;;;;;;;20.70;5.95;;;;;;;-1.91;88.74;99599.28;333318;28;17670;-76
2024/01/14 00:57:34;;;;;;;17.17;5.28;;;;;;;-1.91;88.55;99598.41;336103;28;5517;-77
2024/01/14 00:57:47;;;;;;;15.70;5.43;;;;;;;-1.85;88.33;99593.41;333887;28;18229;-76
2024/01/14 00:57:59;;;;;;;16.17;5.68;;;;;;;-1.79;88.11;99601.19;332603;28;4617;-77
2024/01/14 00:58:11;;;;;;;15.88;6.10;;;;;;;-1.82;88.28;99593.47;334288;28;14659;-76
2024/01/14 00:58:23;;;;;;;14.38;6.15;;;;;;;-1.83;88.28;99596.88;337537;28;4921;-77
2024/01/14 00:58:35;;;;;;;16.17;6.65;;;;;;;-1.77;88.13;99596.97;337651;28;4687;-76
2024/01/14 00:58:48;;;;;;;15.15;6.38;;;;;;;-1.77;88.19;99591.88;336374;28;17965;-76
2024/01/14 00:59:00;;;;;;;13.95;5.68;;;;;;;-1.73;87.76;99598.72;338255;28;4832;-77